sensor_id;sensor_type;location;lat;lon;timestamp;temperature;humidity
11005;DHT22;5555;59.622;16.556;2024-03-08T00:01:15;-0.70;99.90
11005;DHT22;5555;59.622;16.556;2024-03-08T00:03:42;-0.70;99.90
11005;DHT22;5555;59.622;16.556;2024-03-08T00:06:08;-0.70;99.90
11005;DHT22;5555;59.622;16.556;2024-03-08T00:08:33;-0.70;99.90
11005;DHT22;5555;59.622;16.556;2024-03-08T00:10:59;-0.80;99.90
11005;DHT22;5555;59.622;16.556;2024-03-08T00:13:24;-0.80;99.90
11005;DHT22;5555;59.622;16.556;2024-03-08T00:15:50;-0.80;99.90
11005;DHT22;5555;59.622;16.556;2024-03-08T00:18:16;-0.90;99.90
11005;DHT22;5555;59.622;16.556;2024-03-08T00:20:42;-0.80;99.90
11005;DHT22;5555;59.622;16.556;2024-03-08T00:23:09;-0.70;99.90
11005;DHT22;5555;59.622;16.556;2024-03-08T00:25:36;-0.70;99.90
11005;DHT22;5555;59.622;16.556;2024-03-08T00:28:02;-0.70;99.90
11005;DHT22;5555;59.622;16.556;2024-03-08T00:30:30;-0.60;99.90
11005;DHT22;5555;59.622;16.556;2024-03-08T00:32:56;-0.50;99.90
11005;DHT22;5555;59.622;16.556;2024-03-08T00:35:22;-0.40;99.90
11005;DHT22;5555;59.622;16.556;2024-03-08T00:37:48;-0.40;99.90
11005;DHT22;5555;59.622;16.556;2024-03-08T00:40:14;-0.40;99.90
11005;DHT22;5555;59.622;16.556;2024-03-08T00:42:40;-0.30;99.90
11005;DHT22;5555;59.622;16.556;2024-03-08T00:45:07;-0.30;99.90
11005;DHT22;5555;59.622;16.556;2024-03-08T00:47:33;-0.20;99.90
11005;DHT22;5555;59.622;16.556;2024-03-08T00:49:59;-0.20;99.90
11005;DHT22;5555;59.622;16.556;2024-03-08T00:52:24;-0.30;99.90
11005;DHT22;5555;59.622;16.556;2024-03-08T00:54:50;-0.30;99.90
11005;DHT22;5555;59.622;16.556;2024-03-08T00:57:16;-0.30;99.90
11005;DHT22;5555;59.622;16.556;2024-03-08T00:59:41;-0.30;99.90
11005;DHT22;5555;59.622;16.556;2024-03-08T01:02:07;-0.40;99.90
11005;DHT22;5555;59.622;16.556;2024-03-08T01:04:34;-0.40;99.90
11005;DHT22;5555;59.622;16.556;2024-03-08T01:07:01;-0.40;99.90
11005;DHT22;5555;59.622;16.556;2024-03-08T01:09:27;-0.50;99.90
11005;DHT22;5555;59.622;16.556;2024-03-08T01:11:54;-0.60;99.90
11005;DHT22;5555;59.622;16.556;2024-03-08T01:14:20;-0.60;99.90
11005;DHT22;5555;59.622;16.556;2024-03-08T01:16:49;-0.70;99.90
11005;DHT22;5555;59.622;16.556;2024-03-08T01:19:16;-0.70;99.90
11005;DHT22;5555;59.622;16.556;2024-03-08T01:21:42;-0.70;99.90
11005;DHT22;5555;59.622;16.556;2024-03-08T01:24:07;-0.70;99.90
11005;DHT22;5555;59.622;16.556;2024-03-08T01:26:33;-0.80;99.90
11005;DHT22;5555;59.622;16.556;2024-03-08T01:29:02;-0.80;99.90
11005;DHT22;5555;59.622;16.556;2024-03-08T01:31:29;-0.90;99.90
11005;DHT22;5555;59.622;16.556;2024-03-08T01:33:56;-0.80;99.90
11005;DHT22;5555;59.622;16.556;2024-03-08T01:36:21;-0.70;99.90
11005;DHT22;5555;59.622;16.556;2024-03-08T01:38:47;-0.80;99.90
11005;DHT22;5555;59.622;16.556;2024-03-08T01:41:13;-0.80;99.90
11005;DHT22;5555;59.622;16.556;2024-03-08T01:43:39;-0.90;99.90
11005;DHT22;5555;59.622;16.556;2024-03-08T01:46:06;-0.90;99.90
11005;DHT22;5555;59.622;16.556;2024-03-08T01:48:34;-0.90;99.90
11005;DHT22;5555;59.622;16.556;2024-03-08T01:51:00;-0.90;99.90
11005;DHT22;5555;59.622;16.556;2024-03-08T01:53:27;-0.90;99.90
11005;DHT22;5555;59.622;16.556;2024-03-08T01:55:57;-1.00;99.90
11005;DHT22;5555;59.622;16.556;2024-03-08T01:58:24;-1.00;99.90
11005;DHT22;5555;59.622;16.556;2024-03-08T02:00:53;-1.00;99.90
11005;DHT22;5555;59.622;16.556;2024-03-08T02:03:18;-0.90;99.90
11005;DHT22;5555;59.622;16.556;2024-03-08T02:05:44;-0.90;99.90
11005;DHT22;5555;59.622;16.556;2024-03-08T02:08:10;-1.00;99.90
11005;DHT22;5555;59.622;16.556;2024-03-08T02:10:43;-1.00;99.90
11005;DHT22;5555;59.622;16.556;2024-03-08T02:13:10;-1.00;99.90
11005;DHT22;5555;59.622;16.556;2024-03-08T02:15:56;-1.00;99.90
11005;DHT22;5555;59.622;16.556;2024-03-08T02:18:22;-1.10;99.90
11005;DHT22;5555;59.622;16.556;2024-03-08T02:20:56;-1.10;99.90
11005;DHT22;5555;59.622;16.556;2024-03-08T02:23:23;-1.00;99.90
11005;DHT22;5555;59.622;16.556;2024-03-08T02:25:52;-1.10;99.90
11005;DHT22;5555;59.622;16.556;2024-03-08T02:28:19;-1.10;99.90
11005;DHT22;5555;59.622;16.556;2024-03-08T02:30:46;-1.20;99.90
11005;DHT22;5555;59.622;16.556;2024-03-08T02:33:17;-1.20;99.90
11005;DHT22;5555;59.622;16.556;2024-03-08T02:35:44;-1.20;99.90
11005;DHT22;5555;59.622;16.556;2024-03-08T02:38:13;-1.20;99.90
11005;DHT22;5555;59.622;16.556;2024-03-08T02:40:42;-1.20;99.90
11005;DHT22;5555;59.622;16.556;2024-03-08T02:43:08;-1.20;99.90
11005;DHT22;5555;59.622;16.556;2024-03-08T02:45:34;-1.20;99.90
11005;DHT22;5555;59.622;16.556;2024-03-08T02:48:00;-1.10;99.90
11005;DHT22;5555;59.622;16.556;2024-03-08T02:50:26;-1.10;99.90
11005;DHT22;5555;59.622;16.556;2024-03-08T02:52:51;-1.10;99.90
11005;DHT22;5555;59.622;16.556;2024-03-08T02:55:17;-1.20;99.90
11005;DHT22;5555;59.622;16.556;2024-03-08T02:57:43;-1.20;99.90
11005;DHT22;5555;59.622;16.556;2024-03-08T03:00:10;-1.20;99.90
11005;DHT22;5555;59.622;16.556;2024-03-08T03:02:36;-1.20;99.90
11005;DHT22;5555;59.622;16.556;2024-03-08T03:05:03;-1.20;99.90
11005;DHT22;5555;59.622;16.556;2024-03-08T03:07:34;-1.10;99.90
11005;DHT22;5555;59.622;16.556;2024-03-08T03:10:00;-1.20;99.90
11005;DHT22;5555;59.622;16.556;2024-03-08T03:12:30;-1.30;99.90
11005;DHT22;5555;59.622;16.556;2024-03-08T03:14:56;-1.30;99.90
11005;DHT22;5555;59.622;16.556;2024-03-08T03:17:26;-1.40;99.90
11005;DHT22;5555;59.622;16.556;2024-03-08T03:19:55;-1.40;99.90
11005;DHT22;5555;59.622;16.556;2024-03-08T03:22:21;-1.40;99.90
11005;DHT22;5555;59.622;16.556;2024-03-08T03:24:47;-1.50;99.90
11005;DHT22;5555;59.622;16.556;2024-03-08T03:27:13;-1.50;99.90
11005;DHT22;5555;59.622;16.556;2024-03-08T03:29:43;-1.40;99.90
11005;DHT22;5555;59.622;16.556;2024-03-08T03:32:12;-1.50;99.90
11005;DHT22;5555;59.622;16.556;2024-03-08T03:34:39;-1.50;99.90
11005;DHT22;5555;59.622;16.556;2024-03-08T03:37:05;-1.50;99.90
11005;DHT22;5555;59.622;16.556;2024-03-08T03:39:32;-1.50;99.90
11005;DHT22;5555;59.622;16.556;2024-03-08T03:41:59;-1.40;99.90
11005;DHT22;5555;59.622;16.556;2024-03-08T03:44:27;-1.50;99.90
11005;DHT22;5555;59.622;16.556;2024-03-08T03:46:53;-1.50;99.90
11005;DHT22;5555;59.622;16.556;2024-03-08T03:49:19;-1.50;99.90
11005;DHT22;5555;59.622;16.556;2024-03-08T03:51:45;-1.60;99.90
11005;DHT22;5555;59.622;16.556;2024-03-08T03:54:11;-1.50;99.90
11005;DHT22;5555;59.622;16.556;2024-03-08T03:56:37;-1.50;99.90
11005;DHT22;5555;59.622;16.556;2024-03-08T03:59:03;-1.50;99.90
11005;DHT22;5555;59.622;16.556;2024-03-08T04:01:29;-1.60;99.90
11005;DHT22;5555;59.622;16.556;2024-03-08T04:03:55;-1.60;99.90
11005;DHT22;5555;59.622;16.556;2024-03-08T04:06:20;-1.70;99.90
11005;DHT22;5555;59.622;16.556;2024-03-08T04:08:47;-1.70;99.90
11005;DHT22;5555;59.622;16.556;2024-03-08T04:11:13;-1.70;99.90
11005;DHT22;5555;59.622;16.556;2024-03-08T04:13:41;-1.70;99.90
11005;DHT22;5555;59.622;16.556;2024-03-08T04:16:07;-1.80;99.90
11005;DHT22;5555;59.622;16.556;2024-03-08T04:18:34;-1.80;99.90
11005;DHT22;5555;59.622;16.556;2024-03-08T04:21:05;-1.70;99.90
11005;DHT22;5555;59.622;16.556;2024-03-08T04:23:34;-1.70;99.90
11005;DHT22;5555;59.622;16.556;2024-03-08T04:26:02;-1.70;99.90
11005;DHT22;5555;59.622;16.556;2024-03-08T04:28:28;-1.70;99.90
11005;DHT22;5555;59.622;16.556;2024-03-08T04:30:54;-1.70;99.90
11005;DHT22;5555;59.622;16.556;2024-03-08T04:33:20;-1.70;99.90
11005;DHT22;5555;59.622;16.556;2024-03-08T04:35:47;-1.70;99.90
11005;DHT22;5555;59.622;16.556;2024-03-08T04:38:12;-1.70;99.90
11005;DHT22;5555;59.622;16.556;2024-03-08T04:40:38;-1.70;99.90
11005;DHT22;5555;59.622;16.556;2024-03-08T04:43:04;-1.70;99.90
11005;DHT22;5555;59.622;16.556;2024-03-08T04:45:30;-1.70;99.90
11005;DHT22;5555;59.622;16.556;2024-03-08T04:47:56;-1.70;99.90
11005;DHT22;5555;59.622;16.556;2024-03-08T04:50:22;-1.60;99.90
11005;DHT22;5555;59.622;16.556;2024-03-08T04:52:47;-1.70;99.90
11005;DHT22;5555;59.622;16.556;2024-03-08T04:55:14;-1.70;99.90
11005;DHT22;5555;59.622;16.556;2024-03-08T04:57:39;-1.80;99.90
11005;DHT22;5555;59.622;16.556;2024-03-08T05:00:05;-1.80;99.90
11005;DHT22;5555;59.622;16.556;2024-03-08T05:02:37;-1.80;99.90
11005;DHT22;5555;59.622;16.556;2024-03-08T05:05:05;-1.80;99.90
11005;DHT22;5555;59.622;16.556;2024-03-08T05:07:32;-1.80;99.90
11005;DHT22;5555;59.622;16.556;2024-03-08T05:10:00;-1.80;99.90
11005;DHT22;5555;59.622;16.556;2024-03-08T05:12:27;-1.70;99.90
11005;DHT22;5555;59.622;16.556;2024-03-08T05:14:53;-1.70;99.90
11005;DHT22;5555;59.622;16.556;2024-03-08T05:17:19;-1.80;99.90
11005;DHT22;5555;59.622;16.556;2024-03-08T05:19:45;-1.70;99.90
11005;DHT22;5555;59.622;16.556;2024-03-08T05:22:10;-1.80;99.90
11005;DHT22;5555;59.622;16.556;2024-03-08T05:24:36;-1.80;99.90
11005;DHT22;5555;59.622;16.556;2024-03-08T05:27:02;-1.80;99.90
11005;DHT22;5555;59.622;16.556;2024-03-08T05:29:29;-1.80;99.90
11005;DHT22;5555;59.622;16.556;2024-03-08T05:31:55;-1.80;99.90
11005;DHT22;5555;59.622;16.556;2024-03-08T05:34:22;-1.70;99.90
11005;DHT22;5555;59.622;16.556;2024-03-08T05:36:48;-1.80;99.90
11005;DHT22;5555;59.622;16.556;2024-03-08T05:39:16;-1.80;99.90
11005;DHT22;5555;59.622;16.556;2024-03-08T05:41:43;-1.70;99.90
11005;DHT22;5555;59.622;16.556;2024-03-08T05:44:10;-1.70;99.90
11005;DHT22;5555;59.622;16.556;2024-03-08T05:46:36;-1.70;99.90
11005;DHT22;5555;59.622;16.556;2024-03-08T05:49:06;-1.70;99.90
11005;DHT22;5555;59.622;16.556;2024-03-08T05:51:36;-1.70;99.90
11005;DHT22;5555;59.622;16.556;2024-03-08T05:54:06;-1.60;99.90
11005;DHT22;5555;59.622;16.556;2024-03-08T05:56:32;-1.60;99.90
11005;DHT22;5555;59.622;16.556;2024-03-08T05:58:58;-1.60;99.90
11005;DHT22;5555;59.622;16.556;2024-03-08T06:01:25;-1.70;99.90
11005;DHT22;5555;59.622;16.556;2024-03-08T06:03:52;-1.60;99.90
11005;DHT22;5555;59.622;16.556;2024-03-08T06:06:19;-1.60;99.90
11005;DHT22;5555;59.622;16.556;2024-03-08T06:08:47;-1.50;99.90
11005;DHT22;5555;59.622;16.556;2024-03-08T06:11:14;-1.40;99.90
11005;DHT22;5555;59.622;16.556;2024-03-08T06:13:40;-1.40;99.90
11005;DHT22;5555;59.622;16.556;2024-03-08T06:16:06;-1.30;99.90
11005;DHT22;5555;59.622;16.556;2024-03-08T06:18:34;-1.30;99.90
11005;DHT22;5555;59.622;16.556;2024-03-08T06:21:02;-1.30;99.90
11005;DHT22;5555;59.622;16.556;2024-03-08T06:23:28;-1.20;99.90
11005;DHT22;5555;59.622;16.556;2024-03-08T06:25:54;-1.20;99.90
11005;DHT22;5555;59.622;16.556;2024-03-08T06:28:20;-1.20;99.90
11005;DHT22;5555;59.622;16.556;2024-03-08T06:30:45;-1.10;99.90
11005;DHT22;5555;59.622;16.556;2024-03-08T06:33:11;-1.10;99.90
11005;DHT22;5555;59.622;16.556;2024-03-08T06:35:37;-1.00;99.90
11005;DHT22;5555;59.622;16.556;2024-03-08T06:38:05;-0.90;99.90
11005;DHT22;5555;59.622;16.556;2024-03-08T06:40:31;-0.80;99.90
11005;DHT22;5555;59.622;16.556;2024-03-08T06:42:56;-0.80;99.90
11005;DHT22;5555;59.622;16.556;2024-03-08T06:45:22;-0.70;99.90
11005;DHT22;5555;59.622;16.556;2024-03-08T06:47:49;-0.60;99.90
11005;DHT22;5555;59.622;16.556;2024-03-08T06:50:15;-0.60;99.90
11005;DHT22;5555;59.622;16.556;2024-03-08T06:52:41;-0.50;99.90
11005;DHT22;5555;59.622;16.556;2024-03-08T06:55:12;-0.50;99.90
11005;DHT22;5555;59.622;16.556;2024-03-08T06:57:41;-0.40;99.90
11005;DHT22;5555;59.622;16.556;2024-03-08T07:00:08;-0.30;99.90
11005;DHT22;5555;59.622;16.556;2024-03-08T07:02:46;-0.20;99.90
11005;DHT22;5555;59.622;16.556;2024-03-08T07:05:14;-0.20;99.90
11005;DHT22;5555;59.622;16.556;2024-03-08T07:07:41;-0.10;99.90
11005;DHT22;5555;59.622;16.556;2024-03-08T07:10:07;0.00;99.90
11005;DHT22;5555;59.622;16.556;2024-03-08T07:12:39;0.10;99.90
11005;DHT22;5555;59.622;16.556;2024-03-08T07:15:05;0.20;99.90
11005;DHT22;5555;59.622;16.556;2024-03-08T07:17:31;0.30;99.90
11005;DHT22;5555;59.622;16.556;2024-03-08T07:20:00;0.40;99.90
11005;DHT22;5555;59.622;16.556;2024-03-08T07:22:32;0.50;99.90
11005;DHT22;5555;59.622;16.556;2024-03-08T07:24:58;0.60;99.90
11005;DHT22;5555;59.622;16.556;2024-03-08T07:27:33;0.70;99.90
11005;DHT22;5555;59.622;16.556;2024-03-08T07:29:59;0.80;99.90
11005;DHT22;5555;59.622;16.556;2024-03-08T07:32:26;0.90;99.90
11005;DHT22;5555;59.622;16.556;2024-03-08T07:34:53;1.10;99.90
11005;DHT22;5555;59.622;16.556;2024-03-08T07:37:20;1.10;99.90
11005;DHT22;5555;59.622;16.556;2024-03-08T07:39:47;1.20;99.90
11005;DHT22;5555;59.622;16.556;2024-03-08T07:42:12;1.30;99.90
11005;DHT22;5555;59.622;16.556;2024-03-08T07:44:38;1.40;99.90
11005;DHT22;5555;59.622;16.556;2024-03-08T07:47:04;1.50;99.90
11005;DHT22;5555;59.622;16.556;2024-03-08T07:49:30;1.50;99.90
11005;DHT22;5555;59.622;16.556;2024-03-08T07:51:56;1.60;99.90
11005;DHT22;5555;59.622;16.556;2024-03-08T07:54:23;1.60;99.90
11005;DHT22;5555;59.622;16.556;2024-03-08T07:56:48;1.50;99.90
11005;DHT22;5555;59.622;16.556;2024-03-08T07:59:16;1.50;99.90
11005;DHT22;5555;59.622;16.556;2024-03-08T08:01:42;1.60;99.90
11005;DHT22;5555;59.622;16.556;2024-03-08T08:04:09;1.70;99.90
11005;DHT22;5555;59.622;16.556;2024-03-08T08:06:40;1.70;99.90
11005;DHT22;5555;59.622;16.556;2024-03-08T08:09:07;1.80;99.90
11005;DHT22;5555;59.622;16.556;2024-03-08T08:11:54;1.90;99.90
11005;DHT22;5555;59.622;16.556;2024-03-08T08:14:19;1.90;99.90
11005;DHT22;5555;59.622;16.556;2024-03-08T08:16:46;2.00;99.90
11005;DHT22;5555;59.622;16.556;2024-03-08T08:19:14;2.00;99.90
11005;DHT22;5555;59.622;16.556;2024-03-08T08:21:41;1.90;99.90
11005;DHT22;5555;59.622;16.556;2024-03-08T08:24:06;2.00;99.90
11005;DHT22;5555;59.622;16.556;2024-03-08T08:26:32;2.20;99.90
11005;DHT22;5555;59.622;16.556;2024-03-08T08:28:59;2.20;99.90
11005;DHT22;5555;59.622;16.556;2024-03-08T08:31:25;2.30;99.90
11005;DHT22;5555;59.622;16.556;2024-03-08T08:33:51;2.40;99.90
11005;DHT22;5555;59.622;16.556;2024-03-08T08:36:26;2.40;99.90
11005;DHT22;5555;59.622;16.556;2024-03-08T08:38:52;2.40;99.90
11005;DHT22;5555;59.622;16.556;2024-03-08T08:41:21;2.40;99.90
11005;DHT22;5555;59.622;16.556;2024-03-08T08:43:50;2.50;99.90
11005;DHT22;5555;59.622;16.556;2024-03-08T08:46:19;2.50;99.90
11005;DHT22;5555;59.622;16.556;2024-03-08T08:48:45;2.60;99.90
11005;DHT22;5555;59.622;16.556;2024-03-08T08:51:11;2.60;99.90
11005;DHT22;5555;59.622;16.556;2024-03-08T08:53:39;2.60;99.90
11005;DHT22;5555;59.622;16.556;2024-03-08T08:56:11;2.80;99.90
11005;DHT22;5555;59.622;16.556;2024-03-08T08:58:39;2.90;99.90
11005;DHT22;5555;59.622;16.556;2024-03-08T09:01:05;2.90;99.90
11005;DHT22;5555;59.622;16.556;2024-03-08T09:03:33;3.00;99.90
11005;DHT22;5555;59.622;16.556;2024-03-08T09:06:00;3.10;99.90
11005;DHT22;5555;59.622;16.556;2024-03-08T09:08:25;3.10;99.90
11005;DHT22;5555;59.622;16.556;2024-03-08T09:10:51;3.20;99.90
11005;DHT22;5555;59.622;16.556;2024-03-08T09:13:17;3.20;99.90
11005;DHT22;5555;59.622;16.556;2024-03-08T09:15:43;3.30;99.90
11005;DHT22;5555;59.622;16.556;2024-03-08T09:18:09;3.30;99.90
11005;DHT22;5555;59.622;16.556;2024-03-08T09:20:35;3.30;99.90
11005;DHT22;5555;59.622;16.556;2024-03-08T09:23:02;3.50;99.90
11005;DHT22;5555;59.622;16.556;2024-03-08T09:25:29;3.40;99.90
11005;DHT22;5555;59.622;16.556;2024-03-08T09:27:55;3.40;99.90
11005;DHT22;5555;59.622;16.556;2024-03-08T09:30:20;3.40;99.90
11005;DHT22;5555;59.622;16.556;2024-03-08T09:32:47;3.50;99.90
11005;DHT22;5555;59.622;16.556;2024-03-08T09:35:12;3.60;99.90
11005;DHT22;5555;59.622;16.556;2024-03-08T09:37:38;3.70;99.90
11005;DHT22;5555;59.622;16.556;2024-03-08T09:40:04;3.90;99.90
11005;DHT22;5555;59.622;16.556;2024-03-08T09:42:35;3.80;99.90
11005;DHT22;5555;59.622;16.556;2024-03-08T09:45:05;3.80;99.90
11005;DHT22;5555;59.622;16.556;2024-03-08T09:47:34;3.80;99.90
11005;DHT22;5555;59.622;16.556;2024-03-08T09:50:07;3.80;99.90
11005;DHT22;5555;59.622;16.556;2024-03-08T09:52:36;3.90;99.90
11005;DHT22;5555;59.622;16.556;2024-03-08T09:55:04;3.80;99.90
11005;DHT22;5555;59.622;16.556;2024-03-08T09:57:32;3.90;99.90
11005;DHT22;5555;59.622;16.556;2024-03-08T09:59:59;3.90;99.90
11005;DHT22;5555;59.622;16.556;2024-03-08T10:02:24;4.00;99.90
11005;DHT22;5555;59.622;16.556;2024-03-08T10:04:51;4.10;99.90
11005;DHT22;5555;59.622;16.556;2024-03-08T10:07:19;4.00;99.90
11005;DHT22;5555;59.622;16.556;2024-03-08T10:09:44;4.00;99.90
11005;DHT22;5555;59.622;16.556;2024-03-08T10:12:16;4.10;99.90
11005;DHT22;5555;59.622;16.556;2024-03-08T10:14:42;4.20;99.90
11005;DHT22;5555;59.622;16.556;2024-03-08T10:17:08;4.30;99.90
11005;DHT22;5555;59.622;16.556;2024-03-08T10:19:34;4.40;99.90
11005;DHT22;5555;59.622;16.556;2024-03-08T10:22:00;4.50;99.90
11005;DHT22;5555;59.622;16.556;2024-03-08T10:24:26;4.50;99.90
11005;DHT22;5555;59.622;16.556;2024-03-08T10:27:03;4.70;99.90
11005;DHT22;5555;59.622;16.556;2024-03-08T10:29:31;4.90;99.90
11005;DHT22;5555;59.622;16.556;2024-03-08T10:31:57;5.10;99.90
11005;DHT22;5555;59.622;16.556;2024-03-08T10:34:23;5.00;99.90
11005;DHT22;5555;59.622;16.556;2024-03-08T10:36:52;5.00;99.90
11005;DHT22;5555;59.622;16.556;2024-03-08T10:41:53;5.30;99.90
11005;DHT22;5555;59.622;16.556;2024-03-08T10:47:19;5.20;99.90
11005;DHT22;5555;59.622;16.556;2024-03-08T10:49:50;5.10;99.90
11005;DHT22;5555;59.622;16.556;2024-03-08T10:52:17;4.90;99.90
11005;DHT22;5555;59.622;16.556;2024-03-08T10:54:45;5.20;99.90
11005;DHT22;5555;59.622;16.556;2024-03-08T10:57:13;5.30;99.90
11005;DHT22;5555;59.622;16.556;2024-03-08T10:59:40;5.50;99.90
11005;DHT22;5555;59.622;16.556;2024-03-08T11:02:11;5.70;99.90
11005;DHT22;5555;59.622;16.556;2024-03-08T11:04:37;5.50;99.90
11005;DHT22;5555;59.622;16.556;2024-03-08T11:07:04;5.50;99.90
11005;DHT22;5555;59.622;16.556;2024-03-08T11:09:40;5.70;99.90
11005;DHT22;5555;59.622;16.556;2024-03-08T11:12:26;5.80;99.90
11005;DHT22;5555;59.622;16.556;2024-03-08T11:14:57;5.60;99.90
11005;DHT22;5555;59.622;16.556;2024-03-08T11:19:56;6.00;99.90
11005;DHT22;5555;59.622;16.556;2024-03-08T11:22:28;5.80;99.90
11005;DHT22;5555;59.622;16.556;2024-03-08T11:25:04;6.20;99.90
11005;DHT22;5555;59.622;16.556;2024-03-08T11:27:35;6.30;99.90
11005;DHT22;5555;59.622;16.556;2024-03-08T11:30:04;6.00;99.90
11005;DHT22;5555;59.622;16.556;2024-03-08T11:32:37;6.00;99.90
11005;DHT22;5555;59.622;16.556;2024-03-08T11:35:06;6.20;99.90
11005;DHT22;5555;59.622;16.556;2024-03-08T11:37:34;6.10;99.90
11005;DHT22;5555;59.622;16.556;2024-03-08T11:40:12;6.20;99.90
11005;DHT22;5555;59.622;16.556;2024-03-08T11:42:44;6.30;99.90
11005;DHT22;5555;59.622;16.556;2024-03-08T11:45:12;6.30;99.90
11005;DHT22;5555;59.622;16.556;2024-03-08T11:47:41;6.40;99.90
11005;DHT22;5555;59.622;16.556;2024-03-08T11:50:07;6.70;99.90
11005;DHT22;5555;59.622;16.556;2024-03-08T11:52:37;6.50;99.90
11005;DHT22;5555;59.622;16.556;2024-03-08T11:55:03;6.70;99.90
11005;DHT22;5555;59.622;16.556;2024-03-08T11:57:31;7.00;99.90
11005;DHT22;5555;59.622;16.556;2024-03-08T11:59:58;6.40;99.90
11005;DHT22;5555;59.622;16.556;2024-03-08T12:02:31;6.80;99.90
11005;DHT22;5555;59.622;16.556;2024-03-08T12:05:00;7.10;99.90
11005;DHT22;5555;59.622;16.556;2024-03-08T12:07:31;7.10;99.90
11005;DHT22;5555;59.622;16.556;2024-03-08T12:12:44;7.60;99.90
11005;DHT22;5555;59.622;16.556;2024-03-08T12:15:10;7.80;99.90
11005;DHT22;5555;59.622;16.556;2024-03-08T12:17:37;8.30;99.90
11005;DHT22;5555;59.622;16.556;2024-03-08T12:20:24;8.30;99.90
11005;DHT22;5555;59.622;16.556;2024-03-08T12:22:55;8.30;99.90
11005;DHT22;5555;59.622;16.556;2024-03-08T12:25:33;8.40;99.90
11005;DHT22;5555;59.622;16.556;2024-03-08T12:28:12;8.90;99.90
11005;DHT22;5555;59.622;16.556;2024-03-08T12:30:49;8.20;99.90
11005;DHT22;5555;59.622;16.556;2024-03-08T12:33:15;7.80;99.90
11005;DHT22;5555;59.622;16.556;2024-03-08T12:35:40;7.80;99.90
11005;DHT22;5555;59.622;16.556;2024-03-08T12:38:07;7.80;99.90
11005;DHT22;5555;59.622;16.556;2024-03-08T12:40:34;8.20;99.90
11005;DHT22;5555;59.622;16.556;2024-03-08T12:43:07;8.80;99.90
11005;DHT22;5555;59.622;16.556;2024-03-08T12:45:33;8.80;99.90
11005;DHT22;5555;59.622;16.556;2024-03-08T12:47:58;9.00;99.90
11005;DHT22;5555;59.622;16.556;2024-03-08T12:50:25;9.60;99.90
11005;DHT22;5555;59.622;16.556;2024-03-08T12:52:51;9.90;99.90
11005;DHT22;5555;59.622;16.556;2024-03-08T12:55:18;10.00;99.90
11005;DHT22;5555;59.622;16.556;2024-03-08T12:57:44;10.50;99.90
11005;DHT22;5555;59.622;16.556;2024-03-08T13:00:10;10.40;99.90
11005;DHT22;5555;59.622;16.556;2024-03-08T13:02:39;9.70;99.90
11005;DHT22;5555;59.622;16.556;2024-03-08T13:05:06;9.60;99.90
11005;DHT22;5555;59.622;16.556;2024-03-08T13:07:31;10.00;99.90
11005;DHT22;5555;59.622;16.556;2024-03-08T13:09:57;10.70;99.90
11005;DHT22;5555;59.622;16.556;2024-03-08T13:12:25;10.40;99.90
11005;DHT22;5555;59.622;16.556;2024-03-08T13:14:51;10.80;99.90
11005;DHT22;5555;59.622;16.556;2024-03-08T13:17:17;10.80;99.90
11005;DHT22;5555;59.622;16.556;2024-03-08T13:19:44;11.00;99.90
11005;DHT22;5555;59.622;16.556;2024-03-08T13:22:10;11.00;99.90
11005;DHT22;5555;59.622;16.556;2024-03-08T13:24:45;11.00;99.90
11005;DHT22;5555;59.622;16.556;2024-03-08T13:27:11;10.40;99.90
11005;DHT22;5555;59.622;16.556;2024-03-08T13:29:51;10.30;99.90
11005;DHT22;5555;59.622;16.556;2024-03-08T13:32:18;11.00;99.90
11005;DHT22;5555;59.622;16.556;2024-03-08T13:34:46;10.70;99.90
11005;DHT22;5555;59.622;16.556;2024-03-08T13:37:13;10.40;99.90
11005;DHT22;5555;59.622;16.556;2024-03-08T13:39:41;10.60;99.90
11005;DHT22;5555;59.622;16.556;2024-03-08T13:42:12;10.30;99.90
11005;DHT22;5555;59.622;16.556;2024-03-08T13:44:42;11.10;99.90
11005;DHT22;5555;59.622;16.556;2024-03-08T13:47:08;11.10;99.90
11005;DHT22;5555;59.622;16.556;2024-03-08T13:49:35;10.10;99.90
11005;DHT22;5555;59.622;16.556;2024-03-08T13:52:01;9.60;99.90
11005;DHT22;5555;59.622;16.556;2024-03-08T13:54:27;9.90;99.90
11005;DHT22;5555;59.622;16.556;2024-03-08T13:56:58;9.40;99.90
11005;DHT22;5555;59.622;16.556;2024-03-08T13:59:24;10.40;99.90
11005;DHT22;5555;59.622;16.556;2024-03-08T14:01:50;9.90;99.90
11005;DHT22;5555;59.622;16.556;2024-03-08T14:04:16;9.60;99.90
11005;DHT22;5555;59.622;16.556;2024-03-08T14:06:44;9.80;99.90
11005;DHT22;5555;59.622;16.556;2024-03-08T14:09:11;9.30;99.90
11005;DHT22;5555;59.622;16.556;2024-03-08T14:11:43;8.30;99.90
11005;DHT22;5555;59.622;16.556;2024-03-08T14:14:10;8.90;99.90
11005;DHT22;5555;59.622;16.556;2024-03-08T14:16:38;8.70;99.90
11005;DHT22;5555;59.622;16.556;2024-03-08T14:19:04;9.40;99.90
11005;DHT22;5555;59.622;16.556;2024-03-08T14:21:31;8.90;99.90
11005;DHT22;5555;59.622;16.556;2024-03-08T14:23:57;9.50;99.90
11005;DHT22;5555;59.622;16.556;2024-03-08T14:26:23;8.90;99.90
11005;DHT22;5555;59.622;16.556;2024-03-08T14:28:48;8.50;99.90
11005;DHT22;5555;59.622;16.556;2024-03-08T14:31:17;8.70;99.90
11005;DHT22;5555;59.622;16.556;2024-03-08T14:33:44;9.00;99.90
11005;DHT22;5555;59.622;16.556;2024-03-08T14:36:14;9.10;99.90
11005;DHT22;5555;59.622;16.556;2024-03-08T14:38:42;8.30;99.90
11005;DHT22;5555;59.622;16.556;2024-03-08T14:41:08;8.70;99.90
11005;DHT22;5555;59.622;16.556;2024-03-08T14:43:34;8.30;99.90
11005;DHT22;5555;59.622;16.556;2024-03-08T14:46:00;8.50;99.90
11005;DHT22;5555;59.622;16.556;2024-03-08T14:48:25;8.20;99.90
11005;DHT22;5555;59.622;16.556;2024-03-08T14:50:51;8.30;99.90
11005;DHT22;5555;59.622;16.556;2024-03-08T14:53:17;7.80;99.90
11005;DHT22;5555;59.622;16.556;2024-03-08T14:55:44;7.60;99.90
11005;DHT22;5555;59.622;16.556;2024-03-08T14:58:13;7.60;99.90
11005;DHT22;5555;59.622;16.556;2024-03-08T15:00:39;7.10;99.90
11005;DHT22;5555;59.622;16.556;2024-03-08T15:03:07;7.10;99.90
11005;DHT22;5555;59.622;16.556;2024-03-08T15:05:36;6.60;99.90
11005;DHT22;5555;59.622;16.556;2024-03-08T15:08:07;6.70;99.90
11005;DHT22;5555;59.622;16.556;2024-03-08T15:10:36;6.60;99.90
11005;DHT22;5555;59.622;16.556;2024-03-08T15:13:02;5.90;99.90
11005;DHT22;5555;59.622;16.556;2024-03-08T15:15:38;5.50;99.90
11005;DHT22;5555;59.622;16.556;2024-03-08T15:18:08;5.60;99.90
11005;DHT22;5555;59.622;16.556;2024-03-08T15:20:36;5.30;99.90
11005;DHT22;5555;59.622;16.556;2024-03-08T15:23:08;4.70;99.90
11005;DHT22;5555;59.622;16.556;2024-03-08T15:25:36;4.30;99.90
11005;DHT22;5555;59.622;16.556;2024-03-08T15:28:04;4.50;99.90
11005;DHT22;5555;59.622;16.556;2024-03-08T15:30:36;4.30;99.90
11005;DHT22;5555;59.622;16.556;2024-03-08T15:33:04;4.70;99.90
11005;DHT22;5555;59.622;16.556;2024-03-08T15:35:34;4.80;99.90
11005;DHT22;5555;59.622;16.556;2024-03-08T15:38:01;4.30;99.90
11005;DHT22;5555;59.622;16.556;2024-03-08T15:40:29;3.30;99.90
11005;DHT22;5555;59.622;16.556;2024-03-08T15:43:00;2.90;99.90
11005;DHT22;5555;59.622;16.556;2024-03-08T15:45:26;3.00;99.90
11005;DHT22;5555;59.622;16.556;2024-03-08T15:47:52;3.20;99.90
11005;DHT22;5555;59.622;16.556;2024-03-08T15:50:20;2.90;99.90